sensor_id;sensor_type;location;lat;lon;timestamp;temperature;humidity
79356;SHT31;68825;51.978;5.654;2023-09-12T00:01:50;22.6;77.5
79356;SHT31;68825;51.978;5.654;2023-09-12T00:04:21;22.5;77.5
79356;SHT31;68825;51.978;5.654;2023-09-12T00:06:49;22.5;77.0
79356;SHT31;68825;51.978;5.654;2023-09-12T00:09:20;22.5;76.7
79356;SHT31;68825;51.978;5.654;2023-09-12T00:11:48;22.5;77.1
79356;SHT31;68825;51.978;5.654;2023-09-12T00:14:18;22.5;77.3
79356;SHT31;68825;51.978;5.654;2023-09-12T00:16:46;22.5;77.1
79356;SHT31;68825;51.978;5.654;2023-09-12T00:19:18;22.5;76.9
79356;SHT31;68825;51.978;5.654;2023-09-12T00:21:46;22.5;76.8
79356;SHT31;68825;51.978;5.654;2023-09-12T00:24:15;22.5;76.3
79356;SHT31;68825;51.978;5.654;2023-09-12T00:26:44;22.4;76.7
79356;SHT31;68825;51.978;5.654;2023-09-12T00:29:13;22.4;76.5
79356;SHT31;68825;51.978;5.654;2023-09-12T00:31:41;22.4;76.5
79356;SHT31;68825;51.978;5.654;2023-09-12T00:34:10;22.4;76.5
79356;SHT31;68825;51.978;5.654;2023-09-12T00:36:38;22.4;76.2
79356;SHT31;68825;51.978;5.654;2023-09-12T00:39:09;22.4;76.5
79356;SHT31;68825;51.978;5.654;2023-09-12T00:41:37;22.4;76.4
79356;SHT31;68825;51.978;5.654;2023-09-12T00:44:06;22.4;76.1
79356;SHT31;68825;51.978;5.654;2023-09-12T00:46:37;22.4;76.4
79356;SHT31;68825;51.978;5.654;2023-09-12T00:49:07;22.4;76.8
79356;SHT31;68825;51.978;5.654;2023-09-12T00:51:37;22.4;76.7
79356;SHT31;68825;51.978;5.654;2023-09-12T00:54:08;22.4;77.1
79356;SHT31;68825;51.978;5.654;2023-09-12T00:56:37;22.4;77.2
79356;SHT31;68825;51.978;5.654;2023-09-12T00:59:08;22.4;77.2
79356;SHT31;68825;51.978;5.654;2023-09-12T01:01:37;22.4;77.1
79356;SHT31;68825;51.978;5.654;2023-09-12T01:04:06;22.4;77.1
79356;SHT31;68825;51.978;5.654;2023-09-12T01:06:34;22.4;77.3
79356;SHT31;68825;51.978;5.654;2023-09-12T01:09:04;22.4;77.3
79356;SHT31;68825;51.978;5.654;2023-09-12T01:11:36;22.4;77.2
79356;SHT31;68825;51.978;5.654;2023-09-12T01:14:05;22.4;76.8
79356;SHT31;68825;51.978;5.654;2023-09-12T01:16:33;22.4;77.1
79356;SHT31;68825;51.978;5.654;2023-09-12T01:19:03;22.5;76.9
79356;SHT31;68825;51.978;5.654;2023-09-12T01:22:23;22.5;76.7
79356;SHT31;68825;51.978;5.654;2023-09-12T01:25:07;22.5;76.8
79356;SHT31;68825;51.978;5.654;2023-09-12T01:27:39;22.5;76.2
79356;SHT31;68825;51.978;5.654;2023-09-12T01:30:10;22.5;76.4
79356;SHT31;68825;51.978;5.654;2023-09-12T01:32:40;22.5;76.5
79356;SHT31;68825;51.978;5.654;2023-09-12T01:35:09;22.4;75.9
79356;SHT31;68825;51.978;5.654;2023-09-12T01:37:38;22.4;76.1
79356;SHT31;68825;51.978;5.654;2023-09-12T01:40:07;22.4;75.7
79356;SHT31;68825;51.978;5.654;2023-09-12T01:42:40;22.4;75.4
79356;SHT31;68825;51.978;5.654;2023-09-12T01:45:13;22.4;75.8
79356;SHT31;68825;51.978;5.654;2023-09-12T01:47:44;22.3;75.9
79356;SHT31;68825;51.978;5.654;2023-09-12T01:50:14;22.3;75.9
79356;SHT31;68825;51.978;5.654;2023-09-12T01:52:44;22.3;75.8
79356;SHT31;68825;51.978;5.654;2023-09-12T01:55:14;22.2;75.4
79356;SHT31;68825;51.978;5.654;2023-09-12T01:57:44;22.2;75.8
79356;SHT31;68825;51.978;5.654;2023-09-12T02:00:14;22.2;75.8
79356;SHT31;68825;51.978;5.654;2023-09-12T02:02:42;22.2;75.8
79356;SHT31;68825;51.978;5.654;2023-09-12T02:05:14;22.1;75.5
79356;SHT31;68825;51.978;5.654;2023-09-12T02:07:46;22.1;75.9
79356;SHT31;68825;51.978;5.654;2023-09-12T02:10:15;22.1;76.0
79356;SHT31;68825;51.978;5.654;2023-09-12T02:12:44;22.1;76.0
79356;SHT31;68825;51.978;5.654;2023-09-12T02:15:13;22.0;76.0
79356;SHT31;68825;51.978;5.654;2023-09-12T02:17:44;22.0;75.7
79356;SHT31;68825;51.978;5.654;2023-09-12T02:20:14;22.0;76.0
79356;SHT31;68825;51.978;5.654;2023-09-12T02:22:43;22.0;75.8
79356;SHT31;68825;51.978;5.654;2023-09-12T02:25:12;22.0;75.7
79356;SHT31;68825;51.978;5.654;2023-09-12T02:27:44;22.0;76.0
79356;SHT31;68825;51.978;5.654;2023-09-12T02:30:13;21.9;75.8
79356;SHT31;68825;51.978;5.654;2023-09-12T02:32:43;21.9;75.7
79356;SHT31;68825;51.978;5.654;2023-09-12T02:35:12;21.9;75.7
79356;SHT31;68825;51.978;5.654;2023-09-12T02:37:40;21.9;75.9
79356;SHT31;68825;51.978;5.654;2023-09-12T02:40:12;21.8;76.1
79356;SHT31;68825;51.978;5.654;2023-09-12T02:42:41;21.8;75.7
79356;SHT31;68825;51.978;5.654;2023-09-12T02:45:10;21.8;75.8
79356;SHT31;68825;51.978;5.654;2023-09-12T02:47:38;21.8;75.7
79356;SHT31;68825;51.978;5.654;2023-09-12T02:50:09;21.8;75.5
79356;SHT31;68825;51.978;5.654;2023-09-12T02:52:38;21.7;75.3
79356;SHT31;68825;51.978;5.654;2023-09-12T02:55:07;21.7;75.4
79356;SHT31;68825;51.978;5.654;2023-09-12T02:57:37;21.7;75.1
79356;SHT31;68825;51.978;5.654;2023-09-12T03:00:06;21.7;75.3
79356;SHT31;68825;51.978;5.654;2023-09-12T03:02:35;21.6;75.4
79356;SHT31;68825;51.978;5.654;2023-09-12T03:05:04;21.6;75.0
79356;SHT31;68825;51.978;5.654;2023-09-12T03:07:33;21.6;75.2
79356;SHT31;68825;51.978;5.654;2023-09-12T03:10:02;21.6;75.5
79356;SHT31;68825;51.978;5.654;2023-09-12T03:12:31;21.6;75.1
79356;SHT31;68825;51.978;5.654;2023-09-12T03:15:00;21.5;75.1
79356;SHT31;68825;51.978;5.654;2023-09-12T03:17:30;21.5;75.4
79356;SHT31;68825;51.978;5.654;2023-09-12T03:19:58;21.5;75.2
79356;SHT31;68825;51.978;5.654;2023-09-12T03:22:27;21.5;75.5
79356;SHT31;68825;51.978;5.654;2023-09-12T03:24:56;21.5;75.8
79356;SHT31;68825;51.978;5.654;2023-09-12T03:27:24;21.5;76.1
79356;SHT31;68825;51.978;5.654;2023-09-12T03:29:53;21.4;76.2
79356;SHT31;68825;51.978;5.654;2023-09-12T03:32:21;21.4;76.3
79356;SHT31;68825;51.978;5.654;2023-09-12T03:34:50;21.4;76.2
79356;SHT31;68825;51.978;5.654;2023-09-12T03:37:18;21.4;76.2
79356;SHT31;68825;51.978;5.654;2023-09-12T03:39:48;21.4;76.5
79356;SHT31;68825;51.978;5.654;2023-09-12T03:42:16;21.4;76.8
79356;SHT31;68825;51.978;5.654;2023-09-12T03:44:45;21.4;76.8
79356;SHT31;68825;51.978;5.654;2023-09-12T03:47:13;21.4;76.8
79356;SHT31;68825;51.978;5.654;2023-09-12T03:49:42;21.4;76.5
79356;SHT31;68825;51.978;5.654;2023-09-12T03:52:12;21.4;76.8
79356;SHT31;68825;51.978;5.654;2023-09-12T03:54:42;21.4;76.5
79356;SHT31;68825;51.978;5.654;2023-09-12T03:57:10;21.4;76.3
79356;SHT31;68825;51.978;5.654;2023-09-12T03:59:39;21.4;76.3
79356;SHT31;68825;51.978;5.654;2023-09-12T04:02:08;21.4;76.2
79356;SHT31;68825;51.978;5.654;2023-09-12T04:04:38;21.4;76.2
79356;SHT31;68825;51.978;5.654;2023-09-12T04:07:06;21.4;76.2
79356;SHT31;68825;51.978;5.654;2023-09-12T04:09:37;21.4;76.2
79356;SHT31;68825;51.978;5.654;2023-09-12T04:12:06;21.4;76.2
79356;SHT31;68825;51.978;5.654;2023-09-12T04:14:37;21.4;76.0
79356;SHT31;68825;51.978;5.654;2023-09-12T04:17:06;21.4;75.6
79356;SHT31;68825;51.978;5.654;2023-09-12T04:19:36;21.4;75.8
79356;SHT31;68825;51.978;5.654;2023-09-12T04:22:05;21.3;75.9
79356;SHT31;68825;51.978;5.654;2023-09-12T04:24:33;21.3;75.4
79356;SHT31;68825;51.978;5.654;2023-09-12T04:27:02;21.3;75.5
79356;SHT31;68825;51.978;5.654;2023-09-12T04:29:32;21.3;75.3
79356;SHT31;68825;51.978;5.654;2023-09-12T04:32:01;21.3;75.6
79356;SHT31;68825;51.978;5.654;2023-09-12T04:34:31;21.2;75.8
79356;SHT31;68825;51.978;5.654;2023-09-12T04:37:01;21.2;75.2
79356;SHT31;68825;51.978;5.654;2023-09-12T04:39:31;21.2;75.5
79356;SHT31;68825;51.978;5.654;2023-09-12T04:42:02;21.2;75.8
79356;SHT31;68825;51.978;5.654;2023-09-12T04:44:34;21.2;75.8
79356;SHT31;68825;51.978;5.654;2023-09-12T04:47:05;21.2;75.6
79356;SHT31;68825;51.978;5.654;2023-09-12T04:49:34;21.2;75.2
79356;SHT31;68825;51.978;5.654;2023-09-12T04:52:03;21.2;75.6
79356;SHT31;68825;51.978;5.654;2023-09-12T04:54:32;21.2;76.4
79356;SHT31;68825;51.978;5.654;2023-09-12T04:57:01;21.2;75.8
79356;SHT31;68825;51.978;5.654;2023-09-12T04:59:29;21.1;76.1
79356;SHT31;68825;51.978;5.654;2023-09-12T05:01:58;21.1;76.4
79356;SHT31;68825;51.978;5.654;2023-09-12T05:04:26;21.1;76.4
79356;SHT31;68825;51.978;5.654;2023-09-12T05:06:55;21.1;76.5
79356;SHT31;68825;51.978;5.654;2023-09-12T05:09:23;21.1;76.7
79356;SHT31;68825;51.978;5.654;2023-09-12T05:11:52;21.2;76.9
79356;SHT31;68825;51.978;5.654;2023-09-12T05:14:20;21.2;77.2
79356;SHT31;68825;51.978;5.654;2023-09-12T05:16:49;21.2;76.6
79356;SHT31;68825;51.978;5.654;2023-09-12T05:19:18;21.2;76.5
79356;SHT31;68825;51.978;5.654;2023-09-12T05:21:46;21.2;76.3
79356;SHT31;68825;51.978;5.654;2023-09-12T05:24:17;21.2;76.5
79356;SHT31;68825;51.978;5.654;2023-09-12T05:26:45;21.2;76.5
79356;SHT31;68825;51.978;5.654;2023-09-12T05:29:15;21.2;76.4
79356;SHT31;68825;51.978;5.654;2023-09-12T05:31:46;21.2;76.4
79356;SHT31;68825;51.978;5.654;2023-09-12T05:34:14;21.2;76.4
79356;SHT31;68825;51.978;5.654;2023-09-12T05:36:43;21.2;76.9
79356;SHT31;68825;51.978;5.654;2023-09-12T05:39:11;21.2;77.0
79356;SHT31;68825;51.978;5.654;2023-09-12T05:41:41;21.3;76.8
79356;SHT31;68825;51.978;5.654;2023-09-12T05:44:10;21.3;77.0
79356;SHT31;68825;51.978;5.654;2023-09-12T05:46:44;21.3;77.0
79356;SHT31;68825;51.978;5.654;2023-09-12T05:49:12;21.3;76.8
79356;SHT31;68825;51.978;5.654;2023-09-12T05:51:41;21.3;76.9
79356;SHT31;68825;51.978;5.654;2023-09-12T05:54:10;21.3;77.2
79356;SHT31;68825;51.978;5.654;2023-09-12T05:56:40;21.3;77.2
79356;SHT31;68825;51.978;5.654;2023-09-12T05:59:08;21.3;77.4
79356;SHT31;68825;51.978;5.654;2023-09-12T06:01:37;21.4;77.5
79356;SHT31;68825;51.978;5.654;2023-09-12T06:04:07;21.4;77.6
79356;SHT31;68825;51.978;5.654;2023-09-12T06:06:36;21.4;77.7
79356;SHT31;68825;51.978;5.654;2023-09-12T06:09:05;21.4;77.5
79356;SHT31;68825;51.978;5.654;2023-09-12T06:11:35;21.4;77.9
79356;SHT31;68825;51.978;5.654;2023-09-12T06:14:04;21.5;77.9
79356;SHT31;68825;51.978;5.654;2023-09-12T06:16:32;21.5;77.9
79356;SHT31;68825;51.978;5.654;2023-09-12T06:19:01;21.5;77.9
79356;SHT31;68825;51.978;5.654;2023-09-12T06:21:34;21.5;78.1
79356;SHT31;68825;51.978;5.654;2023-09-12T06:24:13;21.5;78.1
79356;SHT31;68825;51.978;5.654;2023-09-12T06:26:42;21.6;77.9
79356;SHT31;68825;51.978;5.654;2023-09-12T06:29:11;21.6;78.0
79356;SHT31;68825;51.978;5.654;2023-09-12T06:31:42;21.6;78.0
79356;SHT31;68825;51.978;5.654;2023-09-12T06:34:11;21.6;77.6
79356;SHT31;68825;51.978;5.654;2023-09-12T06:36:40;21.6;77.9
79356;SHT31;68825;51.978;5.654;2023-09-12T06:39:12;21.6;78.0
79356;SHT31;68825;51.978;5.654;2023-09-12T06:41:40;21.7;78.3
79356;SHT31;68825;51.978;5.654;2023-09-12T06:44:11;21.7;78.0
79356;SHT31;68825;51.978;5.654;2023-09-12T06:46:39;21.7;78.1
79356;SHT31;68825;51.978;5.654;2023-09-12T06:49:08;21.8;78.1
79356;SHT31;68825;51.978;5.654;2023-09-12T06:51:39;21.8;77.9
79356;SHT31;68825;51.978;5.654;2023-09-12T06:54:07;21.8;78.0
79356;SHT31;68825;51.978;5.654;2023-09-12T06:56:37;21.8;77.5
79356;SHT31;68825;51.978;5.654;2023-09-12T06:59:08;21.8;77.5
79356;SHT31;68825;51.978;5.654;2023-09-12T07:01:38;21.8;78.0
79356;SHT31;68825;51.978;5.654;2023-09-12T07:04:06;21.9;77.7
79356;SHT31;68825;51.978;5.654;2023-09-12T07:06:35;21.9;78.3
79356;SHT31;68825;51.978;5.654;2023-09-12T07:09:03;21.9;77.8
79356;SHT31;68825;51.978;5.654;2023-09-12T07:11:35;21.9;78.0
79356;SHT31;68825;51.978;5.654;2023-09-12T07:14:03;21.9;78.2
79356;SHT31;68825;51.978;5.654;2023-09-12T07:16:32;22.0;78.1
79356;SHT31;68825;51.978;5.654;2023-09-12T07:19:01;22.0;78.4
79356;SHT31;68825;51.978;5.654;2023-09-12T07:21:31;22.0;77.9
79356;SHT31;68825;51.978;5.654;2023-09-12T07:23:59;22.0;78.4
79356;SHT31;68825;51.978;5.654;2023-09-12T07:26:28;22.1;77.6
79356;SHT31;68825;51.978;5.654;2023-09-12T07:28:57;22.1;78.0
79356;SHT31;68825;51.978;5.654;2023-09-12T07:31:29;22.1;78.2
79356;SHT31;68825;51.978;5.654;2023-09-12T07:33:57;22.1;77.6
79356;SHT31;68825;51.978;5.654;2023-09-12T07:36:26;22.1;77.4
79356;SHT31;68825;51.978;5.654;2023-09-12T07:38:56;22.1;77.3
79356;SHT31;68825;51.978;5.654;2023-09-12T07:41:27;22.2;77.6
79356;SHT31;68825;51.978;5.654;2023-09-12T07:43:56;22.2;77.8
79356;SHT31;68825;51.978;5.654;2023-09-12T07:46:27;22.2;78.3
79356;SHT31;68825;51.978;5.654;2023-09-12T07:48:55;22.2;76.7
79356;SHT31;68825;51.978;5.654;2023-09-12T07:51:24;22.2;77.1
79356;SHT31;68825;51.978;5.654;2023-09-12T07:53:53;22.2;77.2
79356;SHT31;68825;51.978;5.654;2023-09-12T07:56:23;22.2;76.8
79356;SHT31;68825;51.978;5.654;2023-09-12T07:58:59;22.2;76.8
79356;SHT31;68825;51.978;5.654;2023-09-12T08:01:27;22.2;77.2
79356;SHT31;68825;51.978;5.654;2023-09-12T08:03:56;22.2;77.4
79356;SHT31;68825;51.978;5.654;2023-09-12T08:06:25;22.2;76.9
79356;SHT31;68825;51.978;5.654;2023-09-12T08:08:54;22.2;77.6
79356;SHT31;68825;51.978;5.654;2023-09-12T08:11:22;22.2;77.7
79356;SHT31;68825;51.978;5.654;2023-09-12T08:13:51;22.2;77.3
79356;SHT31;68825;51.978;5.654;2023-09-12T08:16:19;22.2;77.8
79356;SHT31;68825;51.978;5.654;2023-09-12T08:18:48;22.3;77.4
79356;SHT31;68825;51.978;5.654;2023-09-12T08:21:16;22.3;77.9
79356;SHT31;68825;51.978;5.654;2023-09-12T08:23:45;22.3;77.7
79356;SHT31;68825;51.978;5.654;2023-09-12T08:26:15;22.3;77.9
79356;SHT31;68825;51.978;5.654;2023-09-12T08:28:44;22.3;77.8
79356;SHT31;68825;51.978;5.654;2023-09-12T08:31:13;22.4;78.3
79356;SHT31;68825;51.978;5.654;2023-09-12T08:33:43;22.4;77.8
79356;SHT31;68825;51.978;5.654;2023-09-12T08:36:12;22.4;77.4
79356;SHT31;68825;51.978;5.654;2023-09-12T08:38:40;22.4;76.9
79356;SHT31;68825;51.978;5.654;2023-09-12T08:41:09;22.4;77.3
79356;SHT31;68825;51.978;5.654;2023-09-12T08:43:38;22.5;76.1
79356;SHT31;68825;51.978;5.654;2023-09-12T08:46:08;22.5;77.0
79356;SHT31;68825;51.978;5.654;2023-09-12T08:48:39;22.5;77.5
79356;SHT31;68825;51.978;5.654;2023-09-12T08:51:09;22.5;77.7
79356;SHT31;68825;51.978;5.654;2023-09-12T08:53:39;22.5;76.8
79356;SHT31;68825;51.978;5.654;2023-09-12T08:56:09;22.5;77.0
79356;SHT31;68825;51.978;5.654;2023-09-12T08:58:40;22.5;76.9
79356;SHT31;68825;51.978;5.654;2023-09-12T09:01:13;22.5;76.1
79356;SHT31;68825;51.978;5.654;2023-09-12T09:03:44;22.5;76.4
79356;SHT31;68825;51.978;5.654;2023-09-12T09:06:14;22.6;76.0
79356;SHT31;68825;51.978;5.654;2023-09-12T09:08:44;22.6;76.2
79356;SHT31;68825;51.978;5.654;2023-09-12T09:11:16;22.6;76.0
79356;SHT31;68825;51.978;5.654;2023-09-12T09:13:47;22.6;74.8
79356;SHT31;68825;51.978;5.654;2023-09-12T09:16:18;22.7;76.2
79356;SHT31;68825;51.978;5.654;2023-09-12T09:18:54;22.7;76.7
79356;SHT31;68825;51.978;5.654;2023-09-12T09:21:26;22.7;74.0
79356;SHT31;68825;51.978;5.654;2023-09-12T09:23:58;22.8;74.2
79356;SHT31;68825;51.978;5.654;2023-09-12T09:26:44;22.8;73.5
79356;SHT31;68825;51.978;5.654;2023-09-12T09:29:16;22.9;74.0
79356;SHT31;68825;51.978;5.654;2023-09-12T09:31:46;22.9;74.5
79356;SHT31;68825;51.978;5.654;2023-09-12T09:34:17;22.9;74.3
79356;SHT31;68825;51.978;5.654;2023-09-12T09:36:50;23.0;72.1
79356;SHT31;68825;51.978;5.654;2023-09-12T09:39:22;23.0;73.1
79356;SHT31;68825;51.978;5.654;2023-09-12T09:41:52;23.1;73.0
79356;SHT31;68825;51.978;5.654;2023-09-12T09:44:24;23.1;71.4
79356;SHT31;68825;51.978;5.654;2023-09-12T09:46:55;23.2;71.1
79356;SHT31;68825;51.978;5.654;2023-09-12T09:49:27;23.2;72.2
79356;SHT31;68825;51.978;5.654;2023-09-12T09:51:56;23.3;70.9
79356;SHT31;68825;51.978;5.654;2023-09-12T09:54:25;23.3;71.0
79356;SHT31;68825;51.978;5.654;2023-09-12T09:56:56;23.3;71.2
79356;SHT31;68825;51.978;5.654;2023-09-12T09:59:26;23.4;72.3
79356;SHT31;68825;51.978;5.654;2023-09-12T10:01:57;23.5;71.6
79356;SHT31;68825;51.978;5.654;2023-09-12T10:04:27;23.5;72.7
79356;SHT31;68825;51.978;5.654;2023-09-12T10:06:57;23.6;72.2
79356;SHT31;68825;51.978;5.654;2023-09-12T10:09:28;23.6;70.2
79356;SHT31;68825;51.978;5.654;2023-09-12T10:11:58;23.6;70.2
79356;SHT31;68825;51.978;5.654;2023-09-12T10:14:29;23.7;71.3
79356;SHT31;68825;51.978;5.654;2023-09-12T10:17:02;23.7;70.5
79356;SHT31;68825;51.978;5.654;2023-09-12T10:19:37;23.8;70.7
79356;SHT31;68825;51.978;5.654;2023-09-12T10:22:12;23.8;70.0
79356;SHT31;68825;51.978;5.654;2023-09-12T10:24:44;23.8;70.1
79356;SHT31;68825;51.978;5.654;2023-09-12T10:27:15;23.8;70.2
79356;SHT31;68825;51.978;5.654;2023-09-12T10:29:44;23.9;71.2
79356;SHT31;68825;51.978;5.654;2023-09-12T10:32:17;23.9;71.3
79356;SHT31;68825;51.978;5.654;2023-09-12T10:34:48;24.0;69.8
79356;SHT31;68825;51.978;5.654;2023-09-12T10:37:19;24.0;70.5
79356;SHT31;68825;51.978;5.654;2023-09-12T10:39:49;24.1;69.6
79356;SHT31;68825;51.978;5.654;2023-09-12T10:42:22;24.2;69.7
79356;SHT31;68825;51.978;5.654;2023-09-12T10:44:54;24.2;69.9
79356;SHT31;68825;51.978;5.654;2023-09-12T10:47:23;24.3;69.2
79356;SHT31;68825;51.978;5.654;2023-09-12T10:49:52;24.3;69.4
79356;SHT31;68825;51.978;5.654;2023-09-12T10:52:29;24.4;70.5
79356;SHT31;68825;51.978;5.654;2023-09-12T10:54:58;24.4;71.5
79356;SHT31;68825;51.978;5.654;2023-09-12T10:57:27;24.5;67.6
79356;SHT31;68825;51.978;5.654;2023-09-12T11:00:14;24.5;70.3
79356;SHT31;68825;51.978;5.654;2023-09-12T11:02:43;24.6;67.0
79356;SHT31;68825;51.978;5.654;2023-09-12T11:05:38;24.6;66.2
79356;SHT31;68825;51.978;5.654;2023-09-12T11:08:11;24.6;67.4
79356;SHT31;68825;51.978;5.654;2023-09-12T11:10:40;24.7;68.9
79356;SHT31;68825;51.978;5.654;2023-09-12T11:13:18;24.7;69.3
79356;SHT31;68825;51.978;5.654;2023-09-12T11:16:13;24.7;68.4
79356;SHT31;68825;51.978;5.654;2023-09-12T11:19:23;24.8;68.9
79356;SHT31;68825;51.978;5.654;2023-09-12T11:21:54;24.8;67.2
79356;SHT31;68825;51.978;5.654;2023-09-12T11:24:23;24.8;68.9
79356;SHT31;68825;51.978;5.654;2023-09-12T11:26:57;24.8;67.2
79356;SHT31;68825;51.978;5.654;2023-09-12T11:29:34;24.8;66.5
79356;SHT31;68825;51.978;5.654;2023-09-12T11:32:03;24.9;65.4
79356;SHT31;68825;51.978;5.654;2023-09-12T11:34:37;24.9;66.8
79356;SHT31;68825;51.978;5.654;2023-09-12T11:37:06;25.0;66.9
79356;SHT31;68825;51.978;5.654;2023-09-12T11:39:36;25.1;66.4
79356;SHT31;68825;51.978;5.654;2023-09-12T11:42:12;25.2;67.6
79356;SHT31;68825;51.978;5.654;2023-09-12T11:44:41;25.3;67.9
79356;SHT31;68825;51.978;5.654;2023-09-12T11:47:11;25.4;69.6
79356;SHT31;68825;51.978;5.654;2023-09-12T11:49:43;25.5;65.8
79356;SHT31;68825;51.978;5.654;2023-09-12T11:52:13;25.6;66.8
79356;SHT31;68825;51.978;5.654;2023-09-12T11:54:44;25.7;65.2
79356;SHT31;68825;51.978;5.654;2023-09-12T11:57:15;25.8;62.6
79356;SHT31;68825;51.978;5.654;2023-09-12T11:59:46;25.8;63.9
79356;SHT31;68825;51.978;5.654;2023-09-12T12:02:15;25.8;65.5
79356;SHT31;68825;51.978;5.654;2023-09-12T12:04:45;25.9;66.9
79356;SHT31;68825;51.978;5.654;2023-09-12T12:07:14;25.9;63.6
79356;SHT31;68825;51.978;5.654;2023-09-12T12:09:43;26.0;63.5
79356;SHT31;68825;51.978;5.654;2023-09-12T12:12:14;26.0;61.9
79356;SHT31;68825;51.978;5.654;2023-09-12T12:14:43;26.1;60.0
79356;SHT31;68825;51.978;5.654;2023-09-12T12:17:12;26.1;62.0
79356;SHT31;68825;51.978;5.654;2023-09-12T12:19:45;26.1;57.7
79356;SHT31;68825;51.978;5.654;2023-09-12T12:22:14;26.1;60.1
79356;SHT31;68825;51.978;5.654;2023-09-12T12:24:47;26.1;62.4
79356;SHT31;68825;51.978;5.654;2023-09-12T12:27:17;26.1;62.5
79356;SHT31;68825;51.978;5.654;2023-09-12T12:29:46;26.1;59.6
79356;SHT31;68825;51.978;5.654;2023-09-12T12:32:15;26.1;58.8
79356;SHT31;68825;51.978;5.654;2023-09-12T12:34:47;26.1;60.4
79356;SHT31;68825;51.978;5.654;2023-09-12T12:37:16;26.2;61.5
79356;SHT31;68825;51.978;5.654;2023-09-12T12:39:45;26.2;59.1
79356;SHT31;68825;51.978;5.654;2023-09-12T12:42:13;26.3;57.4
79356;SHT31;68825;51.978;5.654;2023-09-12T12:44:43;26.3;56.0
79356;SHT31;68825;51.978;5.654;2023-09-12T12:47:12;26.3;59.8
79356;SHT31;68825;51.978;5.654;2023-09-12T12:49:43;26.3;61.3
79356;SHT31;68825;51.978;5.654;2023-09-12T12:52:11;26.3;57.3
79356;SHT31;68825;51.978;5.654;2023-09-12T12:54:42;26.4;55.7
79356;SHT31;68825;51.978;5.654;2023-09-12T12:57:11;26.4;58.2
79356;SHT31;68825;51.978;5.654;2023-09-12T12:59:46;26.5;55.3
79356;SHT31;68825;51.978;5.654;2023-09-12T13:02:15;26.5;56.9
79356;SHT31;68825;51.978;5.654;2023-09-12T13:04:47;26.6;57.9
79356;SHT31;68825;51.978;5.654;2023-09-12T13:07:16;26.6;56.4
79356;SHT31;68825;51.978;5.654;2023-09-12T13:09:44;26.7;57.0
79356;SHT31;68825;51.978;5.654;2023-09-12T13:12:14;26.7;57.3
79356;SHT31;68825;51.978;5.654;2023-09-12T13:14:44;26.8;55.8
79356;SHT31;68825;51.978;5.654;2023-09-12T13:17:13;26.8;56.4
79356;SHT31;68825;51.978;5.654;2023-09-12T13:19:43;26.8;55.8
79356;SHT31;68825;51.978;5.654;2023-09-12T13:22:11;26.8;57.2
79356;SHT31;68825;51.978;5.654;2023-09-12T13:24:40;26.8;58.4
79356;SHT31;68825;51.978;5.654;2023-09-12T13:27:09;26.9;59.8
79356;SHT31;68825;51.978;5.654;2023-09-12T13:29:38;27.0;58.0
79356;SHT31;68825;51.978;5.654;2023-09-12T13:32:06;27.1;59.8
79356;SHT31;68825;51.978;5.654;2023-09-12T13:34:36;27.2;60.4
79356;SHT31;68825;51.978;5.654;2023-09-12T13:37:07;27.3;59.7
79356;SHT31;68825;51.978;5.654;2023-09-12T13:39:35;27.4;54.6
79356;SHT31;68825;51.978;5.654;2023-09-12T13:42:06;27.5;54.0
79356;SHT31;68825;51.978;5.654;2023-09-12T13:44:36;27.6;54.7
79356;SHT31;68825;51.978;5.654;2023-09-12T13:47:05;27.6;56.4
79356;SHT31;68825;51.978;5.654;2023-09-12T13:49:34;27.7;56.9
79356;SHT31;68825;51.978;5.654;2023-09-12T13:52:03;27.8;54.3
79356;SHT31;68825;51.978;5.654;2023-09-12T13:54:32;27.9;53.7
79356;SHT31;68825;51.978;5.654;2023-09-12T13:57:00;27.9;55.6
79356;SHT31;68825;51.978;5.654;2023-09-12T13:59:29;27.9;55.5
79356;SHT31;68825;51.978;5.654;2023-09-12T14:01:57;27.9;53.7
79356;SHT31;68825;51.978;5.654;2023-09-12T14:04:26;27.9;52.8
79356;SHT31;68825;51.978;5.654;2023-09-12T14:06:55;27.9;53.3
79356;SHT31;68825;51.978;5.654;2023-09-12T14:09:25;27.9;52.0
79356;SHT31;68825;51.978;5.654;2023-09-12T14:11:54;27.8;54.7
79356;SHT31;68825;51.978;5.654;2023-09-12T14:14:22;27.8;53.2
79356;SHT31;68825;51.978;5.654;2023-09-12T14:16:53;27.7;50.8
79356;SHT31;68825;51.978;5.654;2023-09-12T14:19:21;27.6;52.9
79356;SHT31;68825;51.978;5.654;2023-09-12T14:21:50;27.6;53.8
79356;SHT31;68825;51.978;5.654;2023-09-12T14:24:19;27.5;54.3
79356;SHT31;68825;51.978;5.654;2023-09-12T14:26:47;27.5;52.2
79356;SHT31;68825;51.978;5.654;2023-09-12T14:29:17;27.5;55.3
79356;SHT31;68825;51.978;5.654;2023-09-12T14:31:45;27.4;55.8
79356;SHT31;68825;51.978;5.654;2023-09-12T14:34:22;27.4;55.3
79356;SHT31;68825;51.978;5.654;2023-09-12T14:36:53;27.4;56.1
79356;SHT31;68825;51.978;5.654;2023-09-12T14:39:23;27.3;58.5
79356;SHT31;68825;51.978;5.654;2023-09-12T14:41:52;27.3;59.2
79356;SHT31;68825;51.978;5.654;2023-09-12T14:44:21;27.3;57.0
79356;SHT31;68825;51.978;5.654;2023-09-12T14:46:51;27.2;60.2
79356;SHT31;68825;51.978;5.654;2023-09-12T14:49:19;27.2;58.8
79356;SHT31;68825;51.978;5.654;2023-09-12T14:51:48;27.2;57.0
79356;SHT31;68825;51.978;5.654;2023-09-12T14:54:17;27.2;57.0
79356;SHT31;68825;51.978;5.654;2023-09-12T14:56:46;27.1;57.0
79356;SHT31;68825;51.978;5.654;2023-09-12T14:59:14;27.1;57.0
79356;SHT31;68825;51.978;5.654;2023-09-12T15:01:43;27.1;57.0
79356;SHT31;68825;51.978;5.654;2023-09-12T15:04:12;27.1;58.9
79356;SHT31;68825;51.978;5.654;2023-09-12T15:06:41;27.1;57.6
79356;SHT31;68825;51.978;5.654;2023-09-12T15:09:09;27.0;56.5
79356;SHT31;68825;51.978;5.654;2023-09-12T15:11:38;27.0;56.8
79356;SHT31;68825;51.978;5.654;2023-09-12T15:14:06;26.9;57.0
79356;SHT31;68825;51.978;5.654;2023-09-12T15:16:35;26.9;55.8
79356;SHT31;68825;51.978;5.654;2023-09-12T15:19:04;26.8;56.9
79356;SHT31;68825;51.978;5.654;2023-09-12T15:21:32;26.8;58.8
79356;SHT31;68825;51.978;5.654;2023-09-12T15:24:01;26.7;58.3
79356;SHT31;68825;51.978;5.654;2023-09-12T15:26:30;26.7;58.3
79356;SHT31;68825;51.978;5.654;2023-09-12T15:28:58;26.7;57.5
79356;SHT31;68825;51.978;5.654;2023-09-12T15:31:27;26.6;58.0
79356;SHT31;68825;51.978;5.654;2023-09-12T15:33:56;26.6;58.9
79356;SHT31;68825;51.978;5.654;2023-09-12T15:36:26;26.6;58.9
79356;SHT31;68825;51.978;5.654;2023-09-12T15:38:55;26.5;59.3
79356;SHT31;68825;51.978;5.654;2023-09-12T15:41:24;26.5;60.2
79356;SHT31;68825;51.978;5.654;2023-09-12T15:43:53;26.5;60.9
79356;SHT31;68825;51.978;5.654;2023-09-12T15:46:21;26.4;61.2
79356;SHT31;68825;51.978;5.654;2023-09-12T15:48:50;26.4;60.7
79356;SHT31;68825;51.978;5.654;2023-09-12T15:51:18;26.4;61.8
79356;SHT31;68825;51.978;5.654;2023-09-12T15:53:49;26.3;61.7
79356;SHT31;68825;51.978;5.654;2023-09-12T15:56:17;26.3;60.5
79356;SHT31;68825;51.978;5.654;2023-09-12T15:58:47;26.3;60.4
79356;SHT31;68825;51.978;5.654;2023-09-12T16:01:16;26.3;61.4
79356;SHT31;68825;51.978;5.654;2023-09-12T16:03:45;26.2;61.0
79356;SHT31;68825;51.978;5.654;2023-09-12T16:06:14;26.2;61.0
79356;SHT31;68825;51.978;5.654;2023-09-12T16:08:43;26.2;60.6
79356;SHT31;68825;51.978;5.654;2023-09-12T16:11:12;26.2;61.2
79356;SHT31;68825;51.978;5.654;2023-09-12T16:13:41;26.1;60.6
79356;SHT31;68825;51.978;5.654;2023-09-12T16:16:10;26.1;60.8
79356;SHT31;68825;51.978;5.654;2023-09-12T16:18:40;26.0;60.7
79356;SHT31;68825;51.978;5.654;2023-09-12T16:21:10;26.0;61.0